sensor_id;sensor_type;location;lat;lon;timestamp;temperature;humidity
39325;DHT22;25037;49.488;9.900;2022-08-25T00:01:19;20.30;60.60
39325;DHT22;25037;49.488;9.900;2022-08-25T00:03:46;20.30;60.90
39325;DHT22;25037;49.488;9.900;2022-08-25T00:06:12;20.30;60.90
39325;DHT22;25037;49.488;9.900;2022-08-25T00:08:38;20.20;61.10
39325;DHT22;25037;49.488;9.900;2022-08-25T00:11:19;20.20;61.10
39325;DHT22;25037;49.488;9.900;2022-08-25T00:13:47;20.20;61.40
39325;DHT22;25037;49.488;9.900;2022-08-25T00:16:15;20.10;61.40
39325;DHT22;25037;49.488;9.900;2022-08-25T00:18:42;20.10;61.50
39325;DHT22;25037;49.488;9.900;2022-08-25T00:21:10;20.00;61.60
39325;DHT22;25037;49.488;9.900;2022-08-25T00:23:36;20.00;61.70
39325;DHT22;25037;49.488;9.900;2022-08-25T00:26:02;20.00;61.80
39325;DHT22;25037;49.488;9.900;2022-08-25T00:28:29;20.00;61.90
39325;DHT22;25037;49.488;9.900;2022-08-25T00:30:56;19.90;62.00
39325;DHT22;25037;49.488;9.900;2022-08-25T00:33:23;19.90;62.10
39325;DHT22;25037;49.488;9.900;2022-08-25T00:35:50;19.80;62.30
39325;DHT22;25037;49.488;9.900;2022-08-25T00:38:16;19.90;62.30
39325;DHT22;25037;49.488;9.900;2022-08-25T00:40:42;19.80;62.40
39325;DHT22;25037;49.488;9.900;2022-08-25T00:43:08;19.80;62.50
39325;DHT22;25037;49.488;9.900;2022-08-25T00:45:34;19.70;62.60
39325;DHT22;25037;49.488;9.900;2022-08-25T00:48:00;19.70;62.70
39325;DHT22;25037;49.488;9.900;2022-08-25T00:50:28;19.70;62.80
39325;DHT22;25037;49.488;9.900;2022-08-25T00:52:57;19.70;63.00
39325;DHT22;25037;49.488;9.900;2022-08-25T00:55:28;19.60;63.00
39325;DHT22;25037;49.488;9.900;2022-08-25T01:00:34;19.60;63.20
39325;DHT22;25037;49.488;9.900;2022-08-25T01:03:00;19.60;63.00
39325;DHT22;25037;49.488;9.900;2022-08-25T01:05:28;19.50;63.00
39325;DHT22;25037;49.488;9.900;2022-08-25T01:07:55;19.50;63.10
39325;DHT22;25037;49.488;9.900;2022-08-25T01:10:22;19.40;63.30
39325;DHT22;25037;49.488;9.900;2022-08-25T01:12:49;19.40;63.40
39325;DHT22;25037;49.488;9.900;2022-08-25T01:15:16;19.40;63.50
39325;DHT22;25037;49.488;9.900;2022-08-25T01:17:47;19.40;63.50
39325;DHT22;25037;49.488;9.900;2022-08-25T01:20:15;19.40;63.60
39325;DHT22;25037;49.488;9.900;2022-08-25T01:22:42;19.30;63.50
39325;DHT22;25037;49.488;9.900;2022-08-25T01:28:18;19.30;63.80
39325;DHT22;25037;49.488;9.900;2022-08-25T01:30:44;19.20;63.80
39325;DHT22;25037;49.488;9.900;2022-08-25T01:33:11;19.20;63.80
39325;DHT22;25037;49.488;9.900;2022-08-25T01:35:38;19.20;64.00
39325;DHT22;25037;49.488;9.900;2022-08-25T01:38:06;19.20;64.00
39325;DHT22;25037;49.488;9.900;2022-08-25T01:40:32;19.20;64.10
39325;DHT22;25037;49.488;9.900;2022-08-25T01:45:43;19.00;64.30
39325;DHT22;25037;49.488;9.900;2022-08-25T01:48:10;19.00;64.40
39325;DHT22;25037;49.488;9.900;2022-08-25T01:50:37;19.00;64.30
39325;DHT22;25037;49.488;9.900;2022-08-25T01:53:22;19.00;64.40
39325;DHT22;25037;49.488;9.900;2022-08-25T01:55:51;19.00;64.50
39325;DHT22;25037;49.488;9.900;2022-08-25T01:58:18;18.90;64.40
39325;DHT22;25037;49.488;9.900;2022-08-25T02:00:46;18.90;64.50
39325;DHT22;25037;49.488;9.900;2022-08-25T02:03:13;18.90;64.70
39325;DHT22;25037;49.488;9.900;2022-08-25T02:05:38;18.80;64.80
39325;DHT22;25037;49.488;9.900;2022-08-25T02:08:04;18.80;64.90
39325;DHT22;25037;49.488;9.900;2022-08-25T02:10:31;18.80;65.00
39325;DHT22;25037;49.488;9.900;2022-08-25T02:12:57;18.80;65.10
39325;DHT22;25037;49.488;9.900;2022-08-25T02:15:22;18.70;65.10
39325;DHT22;25037;49.488;9.900;2022-08-25T02:17:48;18.70;65.10
39325;DHT22;25037;49.488;9.900;2022-08-25T02:20:13;18.70;65.10
39325;DHT22;25037;49.488;9.900;2022-08-25T02:22:39;18.70;65.20
39325;DHT22;25037;49.488;9.900;2022-08-25T02:25:05;18.70;65.20
39325;DHT22;25037;49.488;9.900;2022-08-25T02:27:31;18.70;65.30
39325;DHT22;25037;49.488;9.900;2022-08-25T02:29:56;18.60;65.40
39325;DHT22;25037;49.488;9.900;2022-08-25T02:32:22;18.60;65.50
39325;DHT22;25037;49.488;9.900;2022-08-25T02:34:48;18.60;65.50
39325;DHT22;25037;49.488;9.900;2022-08-25T02:37:13;18.60;65.50
39325;DHT22;25037;49.488;9.900;2022-08-25T02:39:39;18.60;65.50
39325;DHT22;25037;49.488;9.900;2022-08-25T02:42:05;18.60;65.60
39325;DHT22;25037;49.488;9.900;2022-08-25T02:44:30;18.50;65.70
39325;DHT22;25037;49.488;9.900;2022-08-25T02:46:56;18.40;65.80
39325;DHT22;25037;49.488;9.900;2022-08-25T02:49:22;18.40;65.90
39325;DHT22;25037;49.488;9.900;2022-08-25T02:51:48;18.40;65.90
39325;DHT22;25037;49.488;9.900;2022-08-25T02:54:14;18.40;66.00
39325;DHT22;25037;49.488;9.900;2022-08-25T02:56:40;18.40;65.90
39325;DHT22;25037;49.488;9.900;2022-08-25T02:59:07;18.40;65.90
39325;DHT22;25037;49.488;9.900;2022-08-25T03:01:32;18.30;65.90
39325;DHT22;25037;49.488;9.900;2022-08-25T03:03:58;18.30;66.00
39325;DHT22;25037;49.488;9.900;2022-08-25T03:06:24;18.30;66.10
39325;DHT22;25037;49.488;9.900;2022-08-25T03:08:52;18.30;66.10
39325;DHT22;25037;49.488;9.900;2022-08-25T03:11:18;18.30;66.20
39325;DHT22;25037;49.488;9.900;2022-08-25T03:13:44;18.30;66.20
39325;DHT22;25037;49.488;9.900;2022-08-25T03:16:10;18.30;66.20
39325;DHT22;25037;49.488;9.900;2022-08-25T03:18:36;18.30;66.20
39325;DHT22;25037;49.488;9.900;2022-08-25T03:21:02;18.30;66.20
39325;DHT22;25037;49.488;9.900;2022-08-25T03:23:28;18.30;66.40
39325;DHT22;25037;49.488;9.900;2022-08-25T03:25:54;18.20;66.40
39325;DHT22;25037;49.488;9.900;2022-08-25T03:28:38;18.20;66.40
39325;DHT22;25037;49.488;9.900;2022-08-25T03:31:05;18.10;66.40
39325;DHT22;25037;49.488;9.900;2022-08-25T03:33:31;18.10;66.50
39325;DHT22;25037;49.488;9.900;2022-08-25T03:35:57;18.00;66.60
39325;DHT22;25037;49.488;9.900;2022-08-25T03:38:24;18.00;66.50
39325;DHT22;25037;49.488;9.900;2022-08-25T03:40:51;18.00;66.60
39325;DHT22;25037;49.488;9.900;2022-08-25T03:43:17;17.90;66.70
39325;DHT22;25037;49.488;9.900;2022-08-25T03:45:43;17.90;66.80
39325;DHT22;25037;49.488;9.900;2022-08-25T03:48:09;17.80;66.90
39325;DHT22;25037;49.488;9.900;2022-08-25T03:50:35;17.80;67.00
39325;DHT22;25037;49.488;9.900;2022-08-25T03:53:00;17.80;67.00
39325;DHT22;25037;49.488;9.900;2022-08-25T03:55:26;17.80;67.10
39325;DHT22;25037;49.488;9.900;2022-08-25T03:57:53;17.70;67.20
39325;DHT22;25037;49.488;9.900;2022-08-25T04:00:20;17.80;67.30
39325;DHT22;25037;49.488;9.900;2022-08-25T04:02:46;17.70;67.40
39325;DHT22;25037;49.488;9.900;2022-08-25T04:05:12;17.70;67.40
39325;DHT22;25037;49.488;9.900;2022-08-25T04:07:38;17.70;67.40
39325;DHT22;25037;49.488;9.900;2022-08-25T04:10:08;17.70;67.50
39325;DHT22;25037;49.488;9.900;2022-08-25T04:12:35;17.60;67.60
39325;DHT22;25037;49.488;9.900;2022-08-25T04:15:01;17.60;67.50
39325;DHT22;25037;49.488;9.900;2022-08-25T04:17:26;17.60;67.60
39325;DHT22;25037;49.488;9.900;2022-08-25T04:19:52;17.60;67.60
39325;DHT22;25037;49.488;9.900;2022-08-25T04:22:18;17.60;67.60
39325;DHT22;25037;49.488;9.900;2022-08-25T04:24:44;17.70;67.60
39325;DHT22;25037;49.488;9.900;2022-08-25T04:27:09;17.70;67.50
39325;DHT22;25037;49.488;9.900;2022-08-25T04:29:35;17.70;67.50
39325;DHT22;25037;49.488;9.900;2022-08-25T04:32:00;17.70;67.40
39325;DHT22;25037;49.488;9.900;2022-08-25T04:34:26;17.70;67.40
39325;DHT22;25037;49.488;9.900;2022-08-25T04:36:52;17.80;67.40
39325;DHT22;25037;49.488;9.900;2022-08-25T04:39:20;17.70;67.30
39325;DHT22;25037;49.488;9.900;2022-08-25T04:41:46;17.80;67.40
39325;DHT22;25037;49.488;9.900;2022-08-25T04:44:12;17.70;67.40
39325;DHT22;25037;49.488;9.900;2022-08-25T04:46:38;17.80;67.30
39325;DHT22;25037;49.488;9.900;2022-08-25T04:49:04;17.80;67.30
39325;DHT22;25037;49.488;9.900;2022-08-25T04:51:36;17.80;67.30
39325;DHT22;25037;49.488;9.900;2022-08-25T04:54:07;17.80;67.30
39325;DHT22;25037;49.488;9.900;2022-08-25T04:56:33;17.80;67.20
39325;DHT22;25037;49.488;9.900;2022-08-25T04:59:18;17.80;67.10
39325;DHT22;25037;49.488;9.900;2022-08-25T05:01:44;17.80;67.20
39325;DHT22;25037;49.488;9.900;2022-08-25T05:04:13;17.80;67.30
39325;DHT22;25037;49.488;9.900;2022-08-25T05:06:40;17.70;67.40
39325;DHT22;25037;49.488;9.900;2022-08-25T05:09:06;17.80;67.50
39325;DHT22;25037;49.488;9.900;2022-08-25T05:11:32;17.80;67.60
39325;DHT22;25037;49.488;9.900;2022-08-25T05:14:00;17.90;67.50
39325;DHT22;25037;49.488;9.900;2022-08-25T05:16:26;18.00;67.50
39325;DHT22;25037;49.488;9.900;2022-08-25T05:18:53;18.00;67.30
39325;DHT22;25037;49.488;9.900;2022-08-25T05:21:25;18.10;67.20
39325;DHT22;25037;49.488;9.900;2022-08-25T05:23:54;18.20;67.10
39325;DHT22;25037;49.488;9.900;2022-08-25T05:26:22;18.30;66.90
39325;DHT22;25037;49.488;9.900;2022-08-25T05:28:49;18.30;66.60
39325;DHT22;25037;49.488;9.900;2022-08-25T05:31:16;18.40;66.40
39325;DHT22;25037;49.488;9.900;2022-08-25T05:33:42;18.40;66.30
39325;DHT22;25037;49.488;9.900;2022-08-25T05:36:09;18.50;66.30
39325;DHT22;25037;49.488;9.900;2022-08-25T05:38:35;18.50;66.20
39325;DHT22;25037;49.488;9.900;2022-08-25T05:41:03;18.70;66.20
39325;DHT22;25037;49.488;9.900;2022-08-25T05:43:29;18.80;66.00
39325;DHT22;25037;49.488;9.900;2022-08-25T05:45:56;18.90;65.80
39325;DHT22;25037;49.488;9.900;2022-08-25T05:48:22;19.00;65.60
39325;DHT22;25037;49.488;9.900;2022-08-25T05:53:18;19.30;65.30
39325;DHT22;25037;49.488;9.900;2022-08-25T05:55:44;19.30;65.10
39325;DHT22;25037;49.488;9.900;2022-08-25T05:58:09;19.50;64.90
39325;DHT22;25037;49.488;9.900;2022-08-25T06:00:36;19.60;64.70
39325;DHT22;25037;49.488;9.900;2022-08-25T06:03:02;19.80;64.40
39325;DHT22;25037;49.488;9.900;2022-08-25T06:05:28;20.10;63.70
39325;DHT22;25037;49.488;9.900;2022-08-25T06:07:54;20.50;63.20
39325;DHT22;25037;49.488;9.900;2022-08-25T06:10:20;21.40;61.20
39325;DHT22;25037;49.488;9.900;2022-08-25T06:12:46;21.50;60.90
39325;DHT22;25037;49.488;9.900;2022-08-25T06:15:15;21.50;60.80
39325;DHT22;25037;49.488;9.900;2022-08-25T06:17:41;21.60;60.70
39325;DHT22;25037;49.488;9.900;2022-08-25T06:20:16;21.70;60.60
39325;DHT22;25037;49.488;9.900;2022-08-25T06:22:42;21.90;60.10
39325;DHT22;25037;49.488;9.900;2022-08-25T06:25:10;22.10;60.00
39325;DHT22;25037;49.488;9.900;2022-08-25T06:27:36;22.30;59.50
39325;DHT22;25037;49.488;9.900;2022-08-25T06:30:07;22.50;59.30
39325;DHT22;25037;49.488;9.900;2022-08-25T06:32:34;22.70;58.90
39325;DHT22;25037;49.488;9.900;2022-08-25T06:35:02;23.00;58.40
39325;DHT22;25037;49.488;9.900;2022-08-25T06:37:27;23.30;57.90
39325;DHT22;25037;49.488;9.900;2022-08-25T06:39:53;23.60;57.40
39325;DHT22;25037;49.488;9.900;2022-08-25T06:42:18;23.80;57.00
39325;DHT22;25037;49.488;9.900;2022-08-25T06:44:44;24.10;56.40
39325;DHT22;25037;49.488;9.900;2022-08-25T06:47:10;24.30;55.90
39325;DHT22;25037;49.488;9.900;2022-08-25T06:49:35;24.50;55.60
39325;DHT22;25037;49.488;9.900;2022-08-25T06:52:02;24.70;55.20
39325;DHT22;25037;49.488;9.900;2022-08-25T06:54:28;24.90;54.80
39325;DHT22;25037;49.488;9.900;2022-08-25T06:56:53;25.10;54.50
39325;DHT22;25037;49.488;9.900;2022-08-25T06:59:19;25.30;54.30
39325;DHT22;25037;49.488;9.900;2022-08-25T07:01:44;25.50;53.90
39325;DHT22;25037;49.488;9.900;2022-08-25T07:04:10;25.60;53.90
39325;DHT22;25037;49.488;9.900;2022-08-25T07:06:36;25.70;53.70
39325;DHT22;25037;49.488;9.900;2022-08-25T07:09:06;25.90;53.60
39325;DHT22;25037;49.488;9.900;2022-08-25T07:11:32;26.10;53.20
39325;DHT22;25037;49.488;9.900;2022-08-25T07:14:00;26.20;53.10
39325;DHT22;25037;49.488;9.900;2022-08-25T07:16:26;26.30;52.80
39325;DHT22;25037;49.488;9.900;2022-08-25T07:18:52;26.40;52.60
39325;DHT22;25037;49.488;9.900;2022-08-25T07:21:21;26.60;52.40
39325;DHT22;25037;49.488;9.900;2022-08-25T07:23:47;26.70;52.20
39325;DHT22;25037;49.488;9.900;2022-08-25T07:26:15;26.80;52.00
39325;DHT22;25037;49.488;9.900;2022-08-25T07:28:42;27.10;51.70
39325;DHT22;25037;49.488;9.900;2022-08-25T07:31:08;27.30;51.30
39325;DHT22;25037;49.488;9.900;2022-08-25T07:33:33;27.40;51.10
39325;DHT22;25037;49.488;9.900;2022-08-25T07:35:59;27.60;51.00
39325;DHT22;25037;49.488;9.900;2022-08-25T07:38:25;27.80;50.70
39325;DHT22;25037;49.488;9.900;2022-08-25T07:40:51;28.00;50.20
39325;DHT22;25037;49.488;9.900;2022-08-25T07:43:20;28.20;50.00
39325;DHT22;25037;49.488;9.900;2022-08-25T07:45:46;28.40;49.60
39325;DHT22;25037;49.488;9.900;2022-08-25T07:48:13;28.60;49.30
39325;DHT22;25037;49.488;9.900;2022-08-25T07:50:42;28.70;49.00
39325;DHT22;25037;49.488;9.900;2022-08-25T07:53:10;28.90;48.70
39325;DHT22;25037;49.488;9.900;2022-08-25T07:55:36;29.10;48.30
39325;DHT22;25037;49.488;9.900;2022-08-25T07:58:05;29.10;48.00
39325;DHT22;25037;49.488;9.900;2022-08-25T08:00:31;29.20;48.20
39325;DHT22;25037;49.488;9.900;2022-08-25T08:02:59;29.40;47.70
39325;DHT22;25037;49.488;9.900;2022-08-25T08:05:26;29.60;47.30
39325;DHT22;25037;49.488;9.900;2022-08-25T08:07:52;29.70;46.90
39325;DHT22;25037;49.488;9.900;2022-08-25T08:10:19;29.80;46.70
39325;DHT22;25037;49.488;9.900;2022-08-25T08:12:45;30.00;46.50
39325;DHT22;25037;49.488;9.900;2022-08-25T08:15:11;30.00;46.50
39325;DHT22;25037;49.488;9.900;2022-08-25T08:17:37;30.20;46.20
39325;DHT22;25037;49.488;9.900;2022-08-25T08:20:04;30.30;45.90
39325;DHT22;25037;49.488;9.900;2022-08-25T08:22:34;30.50;45.70
39325;DHT22;25037;49.488;9.900;2022-08-25T08:25:00;30.60;45.30
39325;DHT22;25037;49.488;9.900;2022-08-25T08:27:25;30.70;45.10
39325;DHT22;25037;49.488;9.900;2022-08-25T08:29:51;30.80;44.90
39325;DHT22;25037;49.488;9.900;2022-08-25T08:32:18;31.00;44.50
39325;DHT22;25037;49.488;9.900;2022-08-25T08:34:44;31.10;44.30
39325;DHT22;25037;49.488;9.900;2022-08-25T08:37:12;31.20;44.20
39325;DHT22;25037;49.488;9.900;2022-08-25T08:39:38;31.30;43.90
39325;DHT22;25037;49.488;9.900;2022-08-25T08:42:41;31.40;43.50
39325;DHT22;25037;49.488;9.900;2022-08-25T08:45:49;31.60;43.20
39325;DHT22;25037;49.488;9.900;2022-08-25T08:51:00;31.80;43.10
39325;DHT22;25037;49.488;9.900;2022-08-25T08:56:29;32.10;42.30
39325;DHT22;25037;49.488;9.900;2022-08-25T08:59:16;32.20;42.00
39325;DHT22;25037;49.488;9.900;2022-08-25T09:01:47;32.40;41.80
39325;DHT22;25037;49.488;9.900;2022-08-25T09:04:19;32.40;41.40
39325;DHT22;25037;49.488;9.900;2022-08-25T09:06:48;32.40;41.20
39325;DHT22;25037;49.488;9.900;2022-08-25T09:09:33;32.40;41.40
39325;DHT22;25037;49.488;9.900;2022-08-25T09:14:52;32.20;41.20
39325;DHT22;25037;49.488;9.900;2022-08-25T09:18:04;31.90;41.50
39325;DHT22;25037;49.488;9.900;2022-08-25T09:23:57;31.60;42.10
39325;DHT22;25037;49.488;9.900;2022-08-25T09:26:35;31.40;42.40
39325;DHT22;25037;49.488;9.900;2022-08-25T09:31:36;31.30;42.60
39325;DHT22;25037;49.488;9.900;2022-08-25T09:34:06;31.40;42.20
39325;DHT22;25037;49.488;9.900;2022-08-25T09:36:32;31.50;42.00
39325;DHT22;25037;49.488;9.900;2022-08-25T09:39:00;31.70;41.60
39325;DHT22;25037;49.488;9.900;2022-08-25T09:44:26;31.90;41.30
39325;DHT22;25037;49.488;9.900;2022-08-25T09:47:05;32.00;40.50
39325;DHT22;25037;49.488;9.900;2022-08-25T09:54:48;32.20;40.20
39325;DHT22;25037;49.488;9.900;2022-08-25T10:00:17;32.00;40.10
39325;DHT22;25037;49.488;9.900;2022-08-25T10:03:20;31.90;40.30
39325;DHT22;25037;49.488;9.900;2022-08-25T10:08:31;31.90;40.40
39325;DHT22;25037;49.488;9.900;2022-08-25T10:10:59;32.20;40.00
39325;DHT22;25037;49.488;9.900;2022-08-25T10:13:35;32.40;39.60
39325;DHT22;25037;49.488;9.900;2022-08-25T10:16:05;32.60;39.50
39325;DHT22;25037;49.488;9.900;2022-08-25T10:18:31;32.80;38.90
39325;DHT22;25037;49.488;9.900;2022-08-25T10:21:09;32.80;39.00
39325;DHT22;25037;49.488;9.900;2022-08-25T10:23:39;33.00;38.70
39325;DHT22;25037;49.488;9.900;2022-08-25T10:26:15;33.10;38.60
39325;DHT22;25037;49.488;9.900;2022-08-25T10:28:51;33.00;38.30
39325;DHT22;25037;49.488;9.900;2022-08-25T10:31:24;32.90;38.50
39325;DHT22;25037;49.488;9.900;2022-08-25T10:36:32;33.00;38.50
39325;DHT22;25037;49.488;9.900;2022-08-25T10:39:02;33.00;38.50
39325;DHT22;25037;49.488;9.900;2022-08-25T10:41:40;33.30;37.90
39325;DHT22;25037;49.488;9.900;2022-08-25T10:45:26;33.50;37.30
39325;DHT22;25037;49.488;9.900;2022-08-25T10:50:55;34.00;37.00
39325;DHT22;25037;49.488;9.900;2022-08-25T10:56:30;34.20;36.20
39325;DHT22;25037;49.488;9.900;2022-08-25T10:59:07;34.30;35.60
39325;DHT22;25037;49.488;9.900;2022-08-25T11:01:48;34.20;35.70
39325;DHT22;25037;49.488;9.900;2022-08-25T11:07:22;34.50;35.40
39325;DHT22;25037;49.488;9.900;2022-08-25T11:09:51;34.70;34.80
39325;DHT22;25037;49.488;9.900;2022-08-25T11:12:29;34.80;34.70
39325;DHT22;25037;49.488;9.900;2022-08-25T11:14:59;34.90;34.60
39325;DHT22;25037;49.488;9.900;2022-08-25T11:17:48;34.90;34.50
39325;DHT22;25037;49.488;9.900;2022-08-25T11:20:22;35.00;34.40
39325;DHT22;25037;49.488;9.900;2022-08-25T11:23:02;34.80;34.10
39325;DHT22;25037;49.488;9.900;2022-08-25T11:25:41;34.80;34.00
39325;DHT22;25037;49.488;9.900;2022-08-25T11:28:15;34.70;33.70
39325;DHT22;25037;49.488;9.900;2022-08-25T11:30:42;34.60;33.60
39325;DHT22;25037;49.488;9.900;2022-08-25T11:33:12;34.40;34.00
39325;DHT22;25037;49.488;9.900;2022-08-25T11:35:42;34.50;33.80
39325;DHT22;25037;49.488;9.900;2022-08-25T11:41:20;34.30;34.00
39325;DHT22;25037;49.488;9.900;2022-08-25T11:43:54;34.20;34.00
39325;DHT22;25037;49.488;9.900;2022-08-25T11:47:09;34.30;34.00
39325;DHT22;25037;49.488;9.900;2022-08-25T11:49:52;34.30;33.80
39325;DHT22;25037;49.488;9.900;2022-08-25T11:57:49;34.00;33.90
39325;DHT22;25037;49.488;9.900;2022-08-25T12:00:41;34.00;34.10
39325;DHT22;25037;49.488;9.900;2022-08-25T12:06:26;34.20;33.90
39325;DHT22;25037;49.488;9.900;2022-08-25T12:11:54;34.40;33.80
39325;DHT22;25037;49.488;9.900;2022-08-25T12:29:47;34.20;33.60
39325;DHT22;25037;49.488;9.900;2022-08-25T12:35:28;34.20;33.50
39325;DHT22;25037;49.488;9.900;2022-08-25T12:38:12;34.10;33.50
39325;DHT22;25037;49.488;9.900;2022-08-25T12:43:12;34.10;33.70
39325;DHT22;25037;49.488;9.900;2022-08-25T12:45:50;34.20;33.50
39325;DHT22;25037;49.488;9.900;2022-08-25T12:50:59;34.20;33.60
39325;DHT22;25037;49.488;9.900;2022-08-25T12:53:49;34.30;33.70
39325;DHT22;25037;49.488;9.900;2022-08-25T12:58:53;34.00;34.00
39325;DHT22;25037;49.488;9.900;2022-08-25T13:01:34;33.80;34.10
39325;DHT22;25037;49.488;9.900;2022-08-25T13:07:10;33.70;34.30
39325;DHT22;25037;49.488;9.900;2022-08-25T13:12:12;33.40;34.50
39325;DHT22;25037;49.488;9.900;2022-08-25T13:14:41;33.30;34.90
39325;DHT22;25037;49.488;9.900;2022-08-25T13:17:07;33.30;35.10
39325;DHT22;25037;49.488;9.900;2022-08-25T13:19:33;33.20;35.30
39325;DHT22;25037;49.488;9.900;2022-08-25T13:22:02;33.20;35.40
39325;DHT22;25037;49.488;9.900;2022-08-25T13:24:34;33.20;35.60
39325;DHT22;25037;49.488;9.900;2022-08-25T13:27:07;33.40;35.60
39325;DHT22;25037;49.488;9.900;2022-08-25T13:29:36;33.50;35.50
39325;DHT22;25037;49.488;9.900;2022-08-25T13:32:13;33.70;35.50
39325;DHT22;25037;49.488;9.900;2022-08-25T13:34:41;33.50;35.50
39325;DHT22;25037;49.488;9.900;2022-08-25T13:37:16;33.50;35.50
39325;DHT22;25037;49.488;9.900;2022-08-25T13:42:42;33.30;35.90
39325;DHT22;25037;49.488;9.900;2022-08-25T13:45:11;33.50;35.70
39325;DHT22;25037;49.488;9.900;2022-08-25T13:47:39;33.70;35.50
39325;DHT22;25037;49.488;9.900;2022-08-25T13:50:28;33.90;35.10
39325;DHT22;25037;49.488;9.900;2022-08-25T13:52:59;34.20;34.50
39325;DHT22;25037;49.488;9.900;2022-08-25T13:55:49;34.30;34.30
39325;DHT22;25037;49.488;9.900;2022-08-25T13:58:25;34.60;34.30
39325;DHT22;25037;49.488;9.900;2022-08-25T14:01:20;34.80;34.10
39325;DHT22;25037;49.488;9.900;2022-08-25T14:03:47;34.90;34.30
39325;DHT22;25037;49.488;9.900;2022-08-25T14:08:42;35.00;33.80
39325;DHT22;25037;49.488;9.900;2022-08-25T14:14:04;34.90;33.30
39325;DHT22;25037;49.488;9.900;2022-08-25T14:16:39;34.90;33.40
39325;DHT22;25037;49.488;9.900;2022-08-25T14:19:18;34.80;33.40
39325;DHT22;25037;49.488;9.900;2022-08-25T14:21:45;34.80;33.20
39325;DHT22;25037;49.488;9.900;2022-08-25T14:24:17;34.80;33.30
39325;DHT22;25037;49.488;9.900;2022-08-25T14:26:43;34.80;33.10
39325;DHT22;25037;49.488;9.900;2022-08-25T14:29:10;34.80;33.10
39325;DHT22;25037;49.488;9.900;2022-08-25T14:31:36;34.70;33.20
39325;DHT22;25037;49.488;9.900;2022-08-25T14:34:16;34.70;33.40
39325;DHT22;25037;49.488;9.900;2022-08-25T14:36:42;34.70;33.70
39325;DHT22;25037;49.488;9.900;2022-08-25T14:39:09;34.90;33.70
39325;DHT22;25037;49.488;9.900;2022-08-25T14:41:37;35.10;33.40
39325;DHT22;25037;49.488;9.900;2022-08-25T14:44:04;35.20;33.30
39325;DHT22;25037;49.488;9.900;2022-08-25T14:46:32;35.20;33.20
39325;DHT22;25037;49.488;9.900;2022-08-25T14:49:00;35.20;33.30
39325;DHT22;25037;49.488;9.900;2022-08-25T14:51:28;35.20;33.10
39325;DHT22;25037;49.488;9.900;2022-08-25T14:53:57;35.10;33.20
39325;DHT22;25037;49.488;9.900;2022-08-25T14:56:23;35.00;33.10
39325;DHT22;25037;49.488;9.900;2022-08-25T14:58:48;34.90;33.20
39325;DHT22;25037;49.488;9.900;2022-08-25T15:01:16;34.80;33.20
39325;DHT22;25037;49.488;9.900;2022-08-25T15:03:45;34.70;33.20
39325;DHT22;25037;49.488;9.900;2022-08-25T15:06:14;34.70;33.20
39325;DHT22;25037;49.488;9.900;2022-08-25T15:08:40;34.70;33.20
39325;DHT22;25037;49.488;9.900;2022-08-25T15:11:25;34.70;33.20
39325;DHT22;25037;49.488;9.900;2022-08-25T15:13:51;34.70;33.10
39325;DHT22;25037;49.488;9.900;2022-08-25T15:18:56;34.70;33.10
39325;DHT22;25037;49.488;9.900;2022-08-25T15:21:22;34.50;33.10
39325;DHT22;25037;49.488;9.900;2022-08-25T15:23:47;34.30;33.30
39325;DHT22;25037;49.488;9.900;2022-08-25T15:26:14;34.10;33.40
39325;DHT22;25037;49.488;9.900;2022-08-25T15:28:46;34.00;33.60
39325;DHT22;25037;49.488;9.900;2022-08-25T15:31:13;34.10;33.60
39325;DHT22;25037;49.488;9.900;2022-08-25T15:33:40;34.20;33.60
39325;DHT22;25037;49.488;9.900;2022-08-25T15:36:08;34.40;33.30
39325;DHT22;25037;49.488;9.900;2022-08-25T15:38:36;34.50;33.30
39325;DHT22;25037;49.488;9.900;2022-08-25T15:41:02;34.50;33.40
39325;DHT22;25037;49.488;9.900;2022-08-25T15:43:28;34.50;33.70
39325;DHT22;25037;49.488;9.900;2022-08-25T15:45:53;34.50;33.80
39325;DHT22;25037;49.488;9.900;2022-08-25T15:48:19;34.40;34.00
39325;DHT22;25037;49.488;9.900;2022-08-25T15:50:44;34.20;34.10
39325;DHT22;25037;49.488;9.900;2022-08-25T15:53:11;34.00;34.30
39325;DHT22;25037;49.488;9.900;2022-08-25T15:55:38;33.80;34.60
39325;DHT22;25037;49.488;9.900;2022-08-25T15:58:05;33.50;34.90
39325;DHT22;25037;49.488;9.900;2022-08-25T16:00:30;33.30;35.00
39325;DHT22;25037;49.488;9.900;2022-08-25T16:02:56;33.20;35.10
39325;DHT22;25037;49.488;9.900;2022-08-25T16:05:22;33.10;35.20
39325;DHT22;25037;49.488;9.900;2022-08-25T16:07:47;32.90;35.40
39325;DHT22;25037;49.488;9.900;2022-08-25T16:10:13;32.80;35.60
39325;DHT22;25037;49.488;9.900;2022-08-25T16:12:39;32.70;35.90
39325;DHT22;25037;49.488;9.900;2022-08-25T16:15:05;32.60;36.10
39325;DHT22;25037;49.488;9.900;2022-08-25T16:17:31;32.60;36.10
39325;DHT22;25037;49.488;9.900;2022-08-25T16:19:56;32.60;36.10
39325;DHT22;25037;49.488;9.900;2022-08-25T16:22:22;32.60;36.10
39325;DHT22;25037;49.488;9.900;2022-08-25T16:24:48;32.60;36.10
39325;DHT22;25037;49.488;9.900;2022-08-25T16:27:14;32.60;36.10
39325;DHT22;25037;49.488;9.900;2022-08-25T16:29:41;32.60;36.10
39325;DHT22;25037;49.488;9.900;2022-08-25T16:32:09;32.60;36.00
39325;DHT22;25037;49.488;9.900;2022-08-25T16:34:36;32.50;35.80
39325;DHT22;25037;49.488;9.900;2022-08-25T16:37:02;32.40;36.00
39325;DHT22;25037;49.488;9.900;2022-08-25T16:39:27;32.40;36.10
39325;DHT22;25037;49.488;9.900;2022-08-25T16:41:53;32.40;36.20
39325;DHT22;25037;49.488;9.900;2022-08-25T16:44:20;32.40;36.40
39325;DHT22;25037;49.488;9.900;2022-08-25T16:46:46;32.40;36.40
39325;DHT22;25037;49.488;9.900;2022-08-25T16:49:13;32.40;36.30
39325;DHT22;25037;49.488;9.900;2022-08-25T16:51:39;32.40;36.30
39325;DHT22;25037;49.488;9.900;2022-08-25T16:54:06;32.40;36.30
39325;DHT22;25037;49.488;9.900;2022-08-25T16:56:50;32.40;36.50
39325;DHT22;25037;49.488;9.900;2022-08-25T16:59:16;32.40;36.40
39325;DHT22;25037;49.488;9.900;2022-08-25T17:01:42;32.30;36.50
39325;DHT22;25037;49.488;9.900;2022-08-25T17:04:09;32.30;36.60
39325;DHT22;25037;49.488;9.900;2022-08-25T17:06:40;32.30;36.60
39325;DHT22;25037;49.488;9.900;2022-08-25T17:09:08;32.20;36.70
39325;DHT22;25037;49.488;9.900;2022-08-25T17:11:38;32.10;36.70
39325;DHT22;25037;49.488;9.900;2022-08-25T17:14:07;32.00;36.80
39325;DHT22;25037;49.488;9.900;2022-08-25T17:16:33;31.90;37.00
39325;DHT22;25037;49.488;9.900;2022-08-25T17:19:02;31.70;37.10
39325;DHT22;25037;49.488;9.900;2022-08-25T17:21:32;31.70;37.30
39325;DHT22;25037;49.488;9.900;2022-08-25T17:23:58;31.50;37.40
39325;DHT22;25037;49.488;9.900;2022-08-25T17:26:25;31.40;37.50
39325;DHT22;25037;49.488;9.900;2022-08-25T17:28:51;31.40;37.70
39325;DHT22;25037;49.488;9.900;2022-08-25T17:31:17;31.30;37.70